sensor_id;sensor_type;location;lat;lon;timestamp;P1;durP1;ratioP1;P2;durP2;ratioP2
45382;SDS011;42455;51.660;5.824;2023-07-29T00:00:59;4.0;;;4.0;;
45382;SDS011;42455;51.660;5.824;2023-07-29T00:06:05;5.0;;;4.0;;
45382;SDS011;42455;51.660;5.824;2023-07-29T00:11:11;4.0;;;4.0;;
45382;SDS011;42455;51.660;5.824;2023-07-29T00:16:18;4.0;;;4.0;;
45382;SDS011;42455;51.660;5.824;2023-07-29T00:21:24;4.0;;;4.0;;
45382;SDS011;42455;51.660;5.824;2023-07-29T00:26:30;5.0;;;4.0;;
45382;SDS011;42455;51.660;5.824;2023-07-29T00:31:36;5.0;;;4.0;;
45382;SDS011;42455;51.660;5.824;2023-07-29T00:36:43;5.0;;;4.0;;
45382;SDS011;42455;51.660;5.824;2023-07-29T00:41:49;5.0;;;4.0;;
45382;SDS011;42455;51.660;5.824;2023-07-29T00:46:55;5.0;;;5.0;;
45382;SDS011;42455;51.660;5.824;2023-07-29T00:52:01;5.0;;;5.0;;
45382;SDS011;42455;51.660;5.824;2023-07-29T00:57:07;5.0;;;5.0;;
45382;SDS011;42455;51.660;5.824;2023-07-29T01:02:14;5.0;;;5.0;;
45382;SDS011;42455;51.660;5.824;2023-07-29T01:07:36;5.0;;;4.0;;
45382;SDS011;42455;51.660;5.824;2023-07-29T01:12:28;5.0;;;4.0;;
45382;SDS011;42455;51.660;5.824;2023-07-29T01:17:43;5.0;;;4.0;;
45382;SDS011;42455;51.660;5.824;2023-07-29T01:22:38;5.5;;;4.5;;
45382;SDS011;42455;51.660;5.824;2023-07-29T01:27:45;4.0;;;4.0;;
45382;SDS011;42455;51.660;5.824;2023-07-29T01:32:54;5.0;;;4.0;;
45382;SDS011;42455;51.660;5.824;2023-07-29T01:38:01;5.0;;;4.5;;
45382;SDS011;42455;51.660;5.824;2023-07-29T01:43:03;5.0;;;4.0;;
45382;SDS011;42455;51.660;5.824;2023-07-29T01:48:09;5.0;;;5.0;;
45382;SDS011;42455;51.660;5.824;2023-07-29T01:53:16;5.0;;;4.0;;
45382;SDS011;42455;51.660;5.824;2023-07-29T01:58:22;5.0;;;5.0;;
45382;SDS011;42455;51.660;5.824;2023-07-29T02:03:28;6.0;;;5.0;;
45382;SDS011;42455;51.660;5.824;2023-07-29T02:08:34;5.0;;;5.0;;
45382;SDS011;42455;51.660;5.824;2023-07-29T02:13:41;5.0;;;5.0;;
45382;SDS011;42455;51.660;5.824;2023-07-29T02:18:47;6.0;;;5.0;;
45382;SDS011;42455;51.660;5.824;2023-07-29T02:23:53;6.0;;;5.0;;
45382;SDS011;42455;51.660;5.824;2023-07-29T02:28:59;6.0;;;5.0;;
45382;SDS011;42455;51.660;5.824;2023-07-29T02:34:05;8.0;;;7.0;;
45382;SDS011;42455;51.660;5.824;2023-07-29T02:39:12;8.0;;;7.0;;
45382;SDS011;42455;51.660;5.824;2023-07-29T02:44:18;7.0;;;6.0;;
45382;SDS011;42455;51.660;5.824;2023-07-29T02:49:24;6.0;;;6.0;;
45382;SDS011;42455;51.660;5.824;2023-07-29T02:54:30;7.0;;;6.0;;
45382;SDS011;42455;51.660;5.824;2023-07-29T02:59:36;7.0;;;6.0;;
45382;SDS011;42455;51.660;5.824;2023-07-29T03:04:43;7.0;;;6.0;;
45382;SDS011;42455;51.660;5.824;2023-07-29T03:09:49;7.5;;;7.0;;
45382;SDS011;42455;51.660;5.824;2023-07-29T03:14:55;8.0;;;7.0;;
45382;SDS011;42455;51.660;5.824;2023-07-29T03:20:01;8.0;;;7.0;;
45382;SDS011;42455;51.660;5.824;2023-07-29T03:25:08;8.0;;;7.0;;
45382;SDS011;42455;51.660;5.824;2023-07-29T03:30:13;7.0;;;7.0;;
45382;SDS011;42455;51.660;5.824;2023-07-29T03:35:19;7.0;;;7.0;;
45382;SDS011;42455;51.660;5.824;2023-07-29T03:40:25;7.0;;;7.0;;
45382;SDS011;42455;51.660;5.824;2023-07-29T03:45:32;8.0;;;7.0;;
45382;SDS011;42455;51.660;5.824;2023-07-29T03:50:37;8.0;;;7.0;;
45382;SDS011;42455;51.660;5.824;2023-07-29T03:55:44;8.0;;;7.0;;
45382;SDS011;42455;51.660;5.824;2023-07-29T04:00:50;8.0;;;7.0;;
45382;SDS011;42455;51.660;5.824;2023-07-29T04:05:56;7.5;;;7.0;;
45382;SDS011;42455;51.660;5.824;2023-07-29T04:11:02;8.0;;;7.0;;
45382;SDS011;42455;51.660;5.824;2023-07-29T04:16:08;7.0;;;6.0;;
45382;SDS011;42455;51.660;5.824;2023-07-29T04:21:15;7.0;;;6.0;;
45382;SDS011;42455;51.660;5.824;2023-07-29T04:26:21;6.0;;;6.0;;
45382;SDS011;42455;51.660;5.824;2023-07-29T04:31:27;6.0;;;6.0;;
45382;SDS011;42455;51.660;5.824;2023-07-29T04:36:33;6.0;;;6.0;;
45382;SDS011;42455;51.660;5.824;2023-07-29T04:41:40;6.5;;;6.0;;
45382;SDS011;42455;51.660;5.824;2023-07-29T04:46:46;6.0;;;5.0;;
45382;SDS011;42455;51.660;5.824;2023-07-29T04:51:52;6.0;;;6.0;;
45382;SDS011;42455;51.660;5.824;2023-07-29T04:56:58;6.0;;;5.0;;
45382;SDS011;42455;51.660;5.824;2023-07-29T05:02:05;6.0;;;5.0;;
45382;SDS011;42455;51.660;5.824;2023-07-29T05:07:11;6.0;;;5.0;;
45382;SDS011;42455;51.660;5.824;2023-07-29T05:12:17;6.0;;;5.0;;
45382;SDS011;42455;51.660;5.824;2023-07-29T05:17:23;5.0;;;5.0;;
45382;SDS011;42455;51.660;5.824;2023-07-29T05:22:29;6.0;;;5.0;;
45382;SDS011;42455;51.660;5.824;2023-07-29T05:27:35;5.5;;;5.0;;
45382;SDS011;42455;51.660;5.824;2023-07-29T05:32:42;5.0;;;5.0;;
45382;SDS011;42455;51.660;5.824;2023-07-29T05:37:48;5.0;;;5.0;;
45382;SDS011;42455;51.660;5.824;2023-07-29T05:42:54;5.0;;;4.0;;
45382;SDS011;42455;51.660;5.824;2023-07-29T05:48:00;5.0;;;5.0;;
45382;SDS011;42455;51.660;5.824;2023-07-29T05:53:06;5.0;;;5.0;;
45382;SDS011;42455;51.660;5.824;2023-07-29T05:58:13;5.0;;;5.0;;
45382;SDS011;42455;51.660;5.824;2023-07-29T06:03:19;5.0;;;4.0;;
45382;SDS011;42455;51.660;5.824;2023-07-29T06:08:25;5.0;;;4.0;;
45382;SDS011;42455;51.660;5.824;2023-07-29T06:13:31;5.0;;;4.0;;
45382;SDS011;42455;51.660;5.824;2023-07-29T06:18:37;5.0;;;4.0;;
45382;SDS011;42455;51.660;5.824;2023-07-29T06:23:44;5.0;;;4.0;;
45382;SDS011;42455;51.660;5.824;2023-07-29T06:28:50;5.0;;;4.0;;
45382;SDS011;42455;51.660;5.824;2023-07-29T06:33:56;5.0;;;4.0;;
45382;SDS011;42455;51.660;5.824;2023-07-29T06:39:02;5.0;;;4.0;;
45382;SDS011;42455;51.660;5.824;2023-07-29T06:44:09;5.0;;;4.0;;
45382;SDS011;42455;51.660;5.824;2023-07-29T06:49:15;5.0;;;4.0;;
45382;SDS011;42455;51.660;5.824;2023-07-29T06:54:23;5.0;;;4.0;;
45382;SDS011;42455;51.660;5.824;2023-07-29T06:59:27;4.0;;;4.0;;
45382;SDS011;42455;51.660;5.824;2023-07-29T07:04:33;5.0;;;5.0;;
45382;SDS011;42455;51.660;5.824;2023-07-29T07:09:40;5.0;;;4.0;;
45382;SDS011;42455;51.660;5.824;2023-07-29T07:14:46;5.0;;;5.0;;
45382;SDS011;42455;51.660;5.824;2023-07-29T07:19:52;6.0;;;5.0;;
45382;SDS011;42455;51.660;5.824;2023-07-29T07:24:58;5.0;;;5.0;;
45382;SDS011;42455;51.660;5.824;2023-07-29T07:30:04;5.0;;;4.0;;
45382;SDS011;42455;51.660;5.824;2023-07-29T07:35:11;5.0;;;4.0;;
45382;SDS011;42455;51.660;5.824;2023-07-29T07:40:17;5.0;;;4.0;;
45382;SDS011;42455;51.660;5.824;2023-07-29T07:45:23;4.0;;;3.0;;
45382;SDS011;42455;51.660;5.824;2023-07-29T07:50:30;4.0;;;3.0;;
45382;SDS011;42455;51.660;5.824;2023-07-29T07:55:36;4.0;;;3.0;;
45382;SDS011;42455;51.660;5.824;2023-07-29T08:00:42;3.0;;;3.0;;
45382;SDS011;42455;51.660;5.824;2023-07-29T08:05:48;4.0;;;3.0;;
45382;SDS011;42455;51.660;5.824;2023-07-29T08:10:56;3.0;;;3.0;;
45382;SDS011;42455;51.660;5.824;2023-07-29T08:16:00;3.0;;;3.0;;
45382;SDS011;42455;51.660;5.824;2023-07-29T08:21:06;3.0;;;3.0;;
45382;SDS011;42455;51.660;5.824;2023-07-29T08:26:13;3.0;;;3.0;;
45382;SDS011;42455;51.660;5.824;2023-07-29T08:31:19;4.0;;;3.0;;
45382;SDS011;42455;51.660;5.824;2023-07-29T08:36:25;3.0;;;3.0;;
45382;SDS011;42455;51.660;5.824;2023-07-29T08:41:32;3.0;;;3.0;;
45382;SDS011;42455;51.660;5.824;2023-07-29T08:46:38;3.0;;;3.0;;
45382;SDS011;42455;51.660;5.824;2023-07-29T08:51:44;3.0;;;2.0;;
45382;SDS011;42455;51.660;5.824;2023-07-29T08:56:50;2.0;;;2.0;;
45382;SDS011;42455;51.660;5.824;2023-07-29T09:01:55;2.0;;;2.0;;
45382;SDS011;42455;51.660;5.824;2023-07-29T09:07:01;2.0;;;2.0;;
45382;SDS011;42455;51.660;5.824;2023-07-29T09:12:08;2.0;;;2.0;;
45382;SDS011;42455;51.660;5.824;2023-07-29T09:17:14;2.0;;;2.0;;
45382;SDS011;42455;51.660;5.824;2023-07-29T09:22:20;2.0;;;2.0;;
45382;SDS011;42455;51.660;5.824;2023-07-29T09:27:27;4.0;;;2.0;;
45382;SDS011;42455;51.660;5.824;2023-07-29T09:32:32;2.0;;;2.0;;
45382;SDS011;42455;51.660;5.824;2023-07-29T09:37:39;2.0;;;1.0;;
45382;SDS011;42455;51.660;5.824;2023-07-29T09:42:47;1.0;;;1.0;;
45382;SDS011;42455;51.660;5.824;2023-07-29T09:47:51;2.0;;;1.0;;
45382;SDS011;42455;51.660;5.824;2023-07-29T09:52:57;1.0;;;1.0;;
45382;SDS011;42455;51.660;5.824;2023-07-29T09:58:04;2.0;;;1.0;;
45382;SDS011;42455;51.660;5.824;2023-07-29T10:03:10;1.0;;;1.0;;
45382;SDS011;42455;51.660;5.824;2023-07-29T10:08:16;1.0;;;1.0;;
45382;SDS011;42455;51.660;5.824;2023-07-29T10:13:22;1.0;;;1.0;;
45382;SDS011;42455;51.660;5.824;2023-07-29T10:18:29;1.0;;;1.0;;
45382;SDS011;42455;51.660;5.824;2023-07-29T10:23:38;2.0;;;1.0;;
45382;SDS011;42455;51.660;5.824;2023-07-29T10:28:46;1.0;;;1.0;;
45382;SDS011;42455;51.660;5.824;2023-07-29T10:33:47;1.0;;;1.0;;
45382;SDS011;42455;51.660;5.824;2023-07-29T10:38:53;2.0;;;1.0;;
45382;SDS011;42455;51.660;5.824;2023-07-29T10:43:59;2.0;;;1.0;;
45382;SDS011;42455;51.660;5.824;2023-07-29T10:49:06;1.0;;;1.0;;
45382;SDS011;42455;51.660;5.824;2023-07-29T10:54:13;2.0;;;1.0;;
45382;SDS011;42455;51.660;5.824;2023-07-29T10:59:57;1.0;;;1.0;;
45382;SDS011;42455;51.660;5.824;2023-07-29T11:04:24;1.0;;;1.0;;
45382;SDS011;42455;51.660;5.824;2023-07-29T11:09:42;2.0;;;2.0;;
45382;SDS011;42455;51.660;5.824;2023-07-29T11:14:37;2.0;;;1.0;;
45382;SDS011;42455;51.660;5.824;2023-07-29T11:19:43;1.0;;;1.0;;
45382;SDS011;42455;51.660;5.824;2023-07-29T11:24:49;1.0;;;1.0;;
45382;SDS011;42455;51.660;5.824;2023-07-29T11:29:59;2.0;;;1.0;;
45382;SDS011;42455;51.660;5.824;2023-07-29T11:35:02;2.0;;;1.0;;
45382;SDS011;42455;51.660;5.824;2023-07-29T11:40:08;2.0;;;1.0;;
45382;SDS011;42455;51.660;5.824;2023-07-29T11:45:14;1.0;;;1.0;;
45382;SDS011;42455;51.660;5.824;2023-07-29T11:50:20;2.0;;;1.0;;
45382;SDS011;42455;51.660;5.824;2023-07-29T11:55:26;2.0;;;2.0;;
45382;SDS011;42455;51.660;5.824;2023-07-29T12:00:33;2.0;;;1.0;;
45382;SDS011;42455;51.660;5.824;2023-07-29T12:05:39;4.0;;;1.5;;
45382;SDS011;42455;51.660;5.824;2023-07-29T12:10:45;3.0;;;2.0;;
45382;SDS011;42455;51.660;5.824;2023-07-29T12:15:51;2.0;;;1.0;;
45382;SDS011;42455;51.660;5.824;2023-07-29T12:20:57;1.0;;;1.0;;
45382;SDS011;42455;51.660;5.824;2023-07-29T12:26:04;2.0;;;1.0;;
45382;SDS011;42455;51.660;5.824;2023-07-29T12:31:10;2.0;;;2.0;;
45382;SDS011;42455;51.660;5.824;2023-07-29T12:36:16;1.0;;;1.0;;
45382;SDS011;42455;51.660;5.824;2023-07-29T12:41:22;1.5;;;0.0;;
45382;SDS011;42455;51.660;5.824;2023-07-29T12:46:29;2.0;;;1.0;;
45382;SDS011;42455;51.660;5.824;2023-07-29T12:51:35;3.0;;;2.0;;
45382;SDS011;42455;51.660;5.824;2023-07-29T12:56:41;2.5;;;2.0;;
45382;SDS011;42455;51.660;5.824;2023-07-29T13:01:47;2.0;;;2.0;;
45382;SDS011;42455;51.660;5.824;2023-07-29T13:06:53;3.0;;;2.0;;
45382;SDS011;42455;51.660;5.824;2023-07-29T13:12:00;3.0;;;2.0;;
45382;SDS011;42455;51.660;5.824;2023-07-29T13:17:06;2.0;;;1.0;;
45382;SDS011;42455;51.660;5.824;2023-07-29T13:22:12;2.0;;;2.0;;
45382;SDS011;42455;51.660;5.824;2023-07-29T13:27:18;2.0;;;2.0;;
45382;SDS011;42455;51.660;5.824;2023-07-29T13:32:24;3.0;;;2.0;;
45382;SDS011;42455;51.660;5.824;2023-07-29T13:37:31;3.0;;;3.0;;
45382;SDS011;42455;51.660;5.824;2023-07-29T13:42:37;2.0;;;2.0;;
45382;SDS011;42455;51.660;5.824;2023-07-29T13:47:43;4.0;;;3.0;;
45382;SDS011;42455;51.660;5.824;2023-07-29T13:52:49;3.0;;;2.0;;
45382;SDS011;42455;51.660;5.824;2023-07-29T13:57:55;3.0;;;3.0;;
45382;SDS011;42455;51.660;5.824;2023-07-29T14:03:02;2.0;;;2.0;;
45382;SDS011;42455;51.660;5.824;2023-07-29T14:08:08;2.0;;;1.0;;
45382;SDS011;42455;51.660;5.824;2023-07-29T14:13:14;2.0;;;2.0;;
45382;SDS011;42455;51.660;5.824;2023-07-29T14:18:20;2.0;;;2.0;;
45382;SDS011;42455;51.660;5.824;2023-07-29T14:23:27;2.0;;;1.0;;
45382;SDS011;42455;51.660;5.824;2023-07-29T14:28:33;2.0;;;1.0;;
45382;SDS011;42455;51.660;5.824;2023-07-29T14:33:38;2.0;;;2.0;;
45382;SDS011;42455;51.660;5.824;2023-07-29T14:38:44;2.0;;;2.0;;
45382;SDS011;42455;51.660;5.824;2023-07-29T14:43:50;2.0;;;2.0;;
45382;SDS011;42455;51.660;5.824;2023-07-29T14:48:57;2.0;;;2.0;;
45382;SDS011;42455;51.660;5.824;2023-07-29T14:54:03;3.0;;;2.0;;
45382;SDS011;42455;51.660;5.824;2023-07-29T14:59:09;2.0;;;2.0;;
45382;SDS011;42455;51.660;5.824;2023-07-29T15:04:14;2.0;;;1.0;;
45382;SDS011;42455;51.660;5.824;2023-07-29T15:09:20;2.0;;;1.0;;
45382;SDS011;42455;51.660;5.824;2023-07-29T15:14:27;2.0;;;2.0;;
45382;SDS011;42455;51.660;5.824;2023-07-29T15:19:33;2.0;;;2.0;;
45382;SDS011;42455;51.660;5.824;2023-07-29T15:24:39;3.0;;;2.0;;
45382;SDS011;42455;51.660;5.824;2023-07-29T15:29:46;2.0;;;2.0;;
45382;SDS011;42455;51.660;5.824;2023-07-29T15:34:51;2.0;;;1.0;;
45382;SDS011;42455;51.660;5.824;2023-07-29T15:39:58;2.0;;;1.0;;
45382;SDS011;42455;51.660;5.824;2023-07-29T15:45:04;2.0;;;1.0;;
45382;SDS011;42455;51.660;5.824;2023-07-29T15:50:10;2.0;;;2.0;;
45382;SDS011;42455;51.660;5.824;2023-07-29T15:55:16;2.0;;;2.0;;
45382;SDS011;42455;51.660;5.824;2023-07-29T16:00:23;2.0;;;2.0;;
45382;SDS011;42455;51.660;5.824;2023-07-29T16:05:29;2.0;;;2.0;;
45382;SDS011;42455;51.660;5.824;2023-07-29T16:10:35;2.0;;;2.0;;
45382;SDS011;42455;51.660;5.824;2023-07-29T16:15:41;2.0;;;2.0;;
45382;SDS011;42455;51.660;5.824;2023-07-29T16:20:47;3.0;;;2.0;;
45382;SDS011;42455;51.660;5.824;2023-07-29T16:25:54;3.0;;;2.0;;
45382;SDS011;42455;51.660;5.824;2023-07-29T16:31:00;2.0;;;2.0;;
45382;SDS011;42455;51.660;5.824;2023-07-29T16:36:06;2.0;;;1.0;;
45382;SDS011;42455;51.660;5.824;2023-07-29T16:41:12;2.0;;;1.0;;
45382;SDS011;42455;51.660;5.824;2023-07-29T16:46:18;2.0;;;2.0;;
45382;SDS011;42455;51.660;5.824;2023-07-29T16:51:25;2.0;;;2.0;;
45382;SDS011;42455;51.660;5.824;2023-07-29T16:56:31;3.0;;;2.5;;
45382;SDS011;42455;51.660;5.824;2023-07-29T17:01:37;3.0;;;2.0;;
45382;SDS011;42455;51.660;5.824;2023-07-29T17:06:43;3.0;;;3.0;;
45382;SDS011;42455;51.660;5.824;2023-07-29T17:11:50;3.0;;;2.0;;
45382;SDS011;42455;51.660;5.824;2023-07-29T17:16:56;3.0;;;2.0;;
45382;SDS011;42455;51.660;5.824;2023-07-29T17:22:02;3.0;;;3.0;;
45382;SDS011;42455;51.660;5.824;2023-07-29T17:27:08;3.0;;;3.0;;
45382;SDS011;42455;51.660;5.824;2023-07-29T17:32:14;3.0;;;3.0;;
45382;SDS011;42455;51.660;5.824;2023-07-29T17:37:21;3.0;;;2.0;;
45382;SDS011;42455;51.660;5.824;2023-07-29T17:42:27;3.0;;;3.0;;
45382;SDS011;42455;51.660;5.824;2023-07-29T17:47:33;3.0;;;3.0;;
45382;SDS011;42455;51.660;5.824;2023-07-29T17:52:39;3.0;;;3.0;;
45382;SDS011;42455;51.660;5.824;2023-07-29T17:57:45;4.0;;;3.0;;
45382;SDS011;42455;51.660;5.824;2023-07-29T18:02:52;3.0;;;3.0;;
45382;SDS011;42455;51.660;5.824;2023-07-29T18:07:58;3.0;;;3.0;;
45382;SDS011;42455;51.660;5.824;2023-07-29T18:13:04;3.0;;;3.0;;
45382;SDS011;42455;51.660;5.824;2023-07-29T18:18:10;3.0;;;3.0;;
45382;SDS011;42455;51.660;5.824;2023-07-29T18:23:16;3.0;;;3.0;;
45382;SDS011;42455;51.660;5.824;2023-07-29T18:28:23;3.0;;;3.0;;
45382;SDS011;42455;51.660;5.824;2023-07-29T18:33:29;3.0;;;3.0;;
45382;SDS011;42455;51.660;5.824;2023-07-29T18:38:35;3.0;;;3.0;;
45382;SDS011;42455;51.660;5.824;2023-07-29T18:43:41;3.0;;;3.0;;
45382;SDS011;42455;51.660;5.824;2023-07-29T18:53:54;4.0;;;3.0;;
45382;SDS011;42455;51.660;5.824;2023-07-29T18:59:00;4.0;;;3.0;;
45382;SDS011;42455;51.660;5.824;2023-07-29T19:04:06;4.0;;;4.0;;
45382;SDS011;42455;51.660;5.824;2023-07-29T19:09:12;4.0;;;3.5;;
45382;SDS011;42455;51.660;5.824;2023-07-29T19:14:19;3.0;;;3.0;;
45382;SDS011;42455;51.660;5.824;2023-07-29T19:19:25;3.0;;;3.0;;
45382;SDS011;42455;51.660;5.824;2023-07-29T19:24:31;4.0;;;3.0;;
45382;SDS011;42455;51.660;5.824;2023-07-29T19:29:37;4.0;;;3.0;;
45382;SDS011;42455;51.660;5.824;2023-07-29T19:34:43;3.0;;;3.0;;
45382;SDS011;42455;51.660;5.824;2023-07-29T19:39:50;4.0;;;3.0;;
45382;SDS011;42455;51.660;5.824;2023-07-29T19:44:56;4.0;;;3.0;;
45382;SDS011;42455;51.660;5.824;2023-07-29T19:50:02;4.0;;;3.0;;
45382;SDS011;42455;51.660;5.824;2023-07-29T19:55:08;5.0;;;3.0;;
45382;SDS011;42455;51.660;5.824;2023-07-29T20:00:14;6.0;;;3.0;;
45382;SDS011;42455;51.660;5.824;2023-07-29T20:05:21;6.0;;;3.0;;
45382;SDS011;42455;51.660;5.824;2023-07-29T20:10:27;7.0;;;3.0;;
45382;SDS011;42455;51.660;5.824;2023-07-29T20:15:33;5.0;;;3.0;;
45382;SDS011;42455;51.660;5.824;2023-07-29T20:20:39;8.0;;;3.0;;
45382;SDS011;42455;51.660;5.824;2023-07-29T20:25:47;5.0;;;3.0;;
45382;SDS011;42455;51.660;5.824;2023-07-29T20:30:54;7.0;;;3.5;;
45382;SDS011;42455;51.660;5.824;2023-07-29T20:35:58;6.0;;;4.0;;
45382;SDS011;42455;51.660;5.824;2023-07-29T20:41:03;6.0;;;4.0;;
45382;SDS011;42455;51.660;5.824;2023-07-29T20:46:16;6.0;;;4.0;;
45382;SDS011;42455;51.660;5.824;2023-07-29T20:51:15;7.0;;;4.0;;
45382;SDS011;42455;51.660;5.824;2023-07-29T20:56:22;7.0;;;4.0;;
45382;SDS011;42455;51.660;5.824;2023-07-29T21:01:28;6.0;;;4.0;;
45382;SDS011;42455;51.660;5.824;2023-07-29T21:06:34;6.0;;;4.0;;
45382;SDS011;42455;51.660;5.824;2023-07-29T21:11:40;5.5;;;4.0;;
45382;SDS011;42455;51.660;5.824;2023-07-29T21:16:47;6.0;;;4.0;;
45382;SDS011;42455;51.660;5.824;2023-07-29T21:21:53;5.0;;;4.0;;
45382;SDS011;42455;51.660;5.824;2023-07-29T21:26:59;6.0;;;5.0;;
45382;SDS011;42455;51.660;5.824;2023-07-29T21:32:05;7.0;;;5.0;;
45382;SDS011;42455;51.660;5.824;2023-07-29T21:37:11;6.0;;;4.0;;
45382;SDS011;42455;51.660;5.824;2023-07-29T21:42:18;5.0;;;4.0;;
45382;SDS011;42455;51.660;5.824;2023-07-29T21:47:24;5.0;;;4.0;;
45382;SDS011;42455;51.660;5.824;2023-07-29T21:52:30;5.5;;;4.0;;
45382;SDS011;42455;51.660;5.824;2023-07-29T21:57:36;5.0;;;4.0;;
45382;SDS011;42455;51.660;5.824;2023-07-29T22:02:42;4.0;;;4.0;;
45382;SDS011;42455;51.660;5.824;2023-07-29T22:07:49;4.0;;;4.0;;
45382;SDS011;42455;51.660;5.824;2023-07-29T22:12:55;6.0;;;3.0;;
45382;SDS011;42455;51.660;5.824;2023-07-29T22:18:01;5.5;;;4.0;;
45382;SDS011;42455;51.660;5.824;2023-07-29T22:23:07;5.0;;;4.0;;
45382;SDS011;42455;51.660;5.824;2023-07-29T22:28:14;6.0;;;4.0;;
45382;SDS011;42455;51.660;5.824;2023-07-29T22:33:20;4.0;;;3.0;;
45382;SDS011;42455;51.660;5.824;2023-07-29T22:38:26;5.0;;;3.0;;
45382;SDS011;42455;51.660;5.824;2023-07-29T22:43:32;5.0;;;4.0;;
45382;SDS011;42455;51.660;5.824;2023-07-29T22:48:38;5.0;;;3.0;;
45382;SDS011;42455;51.660;5.824;2023-07-29T22:53:45;6.0;;;4.0;;
45382;SDS011;42455;51.660;5.824;2023-07-29T22:58:51;5.0;;;3.0;;
45382;SDS011;42455;51.660;5.824;2023-07-29T23:03:57;7.0;;;4.0;;
45382;SDS011;42455;51.660;5.824;2023-07-29T23:09:03;5.0;;;3.5;;
45382;SDS011;42455;51.660;5.824;2023-07-29T23:14:09;6.0;;;4.0;;
45382;SDS011;42455;51.660;5.824;2023-07-29T23:19:16;5.0;;;4.0;;
45382;SDS011;42455;51.660;5.824;2023-07-29T23:24:22;4.0;;;3.0;;
45382;SDS011;42455;51.660;5.824;2023-07-29T23:29:28;7.0;;;4.0;;
45382;SDS011;42455;51.660;5.824;2023-07-29T23:34:34;6.0;;;4.0;;
45382;SDS011;42455;51.660;5.824;2023-07-29T23:39:40;7.0;;;4.0;;
45382;SDS011;42455;51.660;5.824;2023-07-29T23:44:47;5.0;;;3.0;;
45382;SDS011;42455;51.660;5.824;2023-07-29T23:49:53;6.0;;;3.0;;
45382;SDS011;42455;51.660;5.824;2023-07-29T23:54:59;6.0;;;3.0;;
